Orange Beach, Alabama
Current Conditions -  °F | °C
As of 10:15 AM on Thursday 29 Jan 2015 (Local Time) from KJKA Reporting Station
Clear Clear  
Wind Chill: 65°   Ceiling: Unl
Heat Index: 65°   Visibility: 10mi
Dew Point: 52°   Wind: 7mph
Humidity: 64%   Direction: 180°S
Pressure: 30.31"   Gusts: NA
Location:  30.29°N, 87.57°W
Report Text: KJKA 291615Z AUTO 18006KT 10SM CLR 18/11 A3031 RMK AO2 T01830113
Loading
Personal Weather Stations






























Interactive Weather Map New forecast layout! Learn more

10-Day Weather Forecast

Advertisements
Track Severe Weather on mobile